Main page
METAR-TAF:

METAR-TAF

Airports :

Alicante, Spain

Alicante–Elche Airport

latitude: 38-17N, longitude: 000-33W, elevation: 43 m

Current weather observation

The report was made 24 minutes ago, at 07:00 UTC
Wind 3 kt from the West
Temperature 6°C
Humidity 87%
Pressure 1017 hPa
Visibility 10 km or more
no clouds below 1500 m and no cumulonimbus

METAR: LEAL 220700Z 26003KT CAVOK 06/04 Q1017 NOSIG

Time: 08:24 (07:24 UTC)

Forecast

The report was made 2 hours and 24 minutes ago, at 05:00 UTC
Forecast valid from 22 at 06 UTC to 23 at 06 UTC
Wind 4 kt from variable directions
Visibility 10 km or more
Few clouds at a height of 3000 ft
Probability 30% :
Temporary
from 22 at 06 UTC to 22 at 09 UTC
Visibility: 2000 m
Broken clouds at a height of 400 ft
patches of fog
Temporary
from 22 at 13 UTC to 22 at 17 UTC
Wind 8 kt from the South

TAF: LEAL 220500Z 2206/2306 VRB04KT 9999 FEW030 TX21/2212Z TN07/2206Z PROB30 TEMPO 2206/2209 2000 BCFG BKN004 TEMPO 2213/2217 18008KT

Weather observations and forecasts of more than 4000 airports (METAR and TAF reports).

The available stations are represented by yellow and red dots on the map.

Hover mouse over dot to see the name of the station.

Then click to see weather observations and forecasts.

To change the map : click on the green buttons with a black cross to zoom in, on the green button with a dash to zoom out, or on the green arrows for adjacent maps.


METAR-TAF: